Time;durP1;ratioP1;P1;durP2;ratioP2;P2;SDS_P1;SDS_P2;PMS_P1;PMS_P2;Temp;Humidity;BMP_temperature;BMP_pressure;BME280_temperature;BME280_humidity;BME280_pressure;Samples;Min_cycle;Max_cycle;Signal;HPM_P1;HPM_P2
2022/01/08 00:01:23;;;;;;;16.33;14.93;;;2.40;99.90;;;;;;4946743;28;20314;-71
2022/01/08 00:03:51;;;;;;;20.48;18.38;;;2.50;99.90;;;;;;4947290;29;20603;-70
2022/01/08 00:06:20;;;;;;;19.65;18.10;;;2.70;99.90;;;;;;4951731;29;20250;-70
2022/01/08 00:08:48;;;;;;;17.35;15.75;;;3.00;99.90;;;;;;4951727;28;20356;-71
2022/01/08 00:11:20;;;;;;;16.60;15.30;;;3.00;99.90;;;;;;4953206;28;20310;-70
2022/01/08 00:13:49;;;;;;;13.70;12.60;;;3.00;99.90;;;;;;4948041;28;20279;-71
2022/01/08 00:16:17;;;;;;;14.27;13.18;;;2.70;99.90;;;;;;4951201;29;20211;-70
2022/01/08 00:18:45;;;;;;;14.05;13.05;;;2.70;99.90;;;;;;4946452;29;20219;-70
2022/01/08 00:21:13;;;;;;;12.80;11.73;;;2.50;99.90;;;;;;4949117;28;20342;-70
2022/01/08 00:23:41;;;;;;;15.20;14.10;;;2.40;99.90;;;;;;4955722;28;20282;-70
2022/01/08 00:26:09;;;;;;;17.23;15.82;;;2.60;99.90;;;;;;4956253;28;20286;-70
2022/01/08 00:28:36;;;;;;;17.88;16.27;;;2.70;99.90;;;;;;4956079;28;20764;-70
2022/01/08 00:31:09;;;;;;;17.67;16.23;;;2.90;99.90;;;;;;4956091;28;20261;-70
2022/01/08 00:33:38;;;;;;;16.60;15.20;;;3.30;99.90;;;;;;4955781;28;20203;-70
2022/01/08 00:36:06;;;;;;;14.70;13.60;;;3.70;99.90;;;;;;4955961;29;20565;-70
2022/01/08 00:38:35;;;;;;;14.18;13.05;;;4.00;99.90;;;;;;4955994;28;20286;-70
2022/01/08 00:41:03;;;;;;;13.65;12.30;;;4.30;99.90;;;;;;4955821;28;20246;-70
2022/01/08 00:43:31;;;;;;;12.00;11.00;;;4.50;99.90;;;;;;4954953;28;20290;-70
2022/01/08 00:45:58;;;;;;;10.77;9.88;;;4.70;99.90;;;;;;4955833;28;20210;-70
2022/01/08 00:48:28;;;;;;;10.95;9.25;;;4.80;99.90;;;;;;4955916;28;20251;-69
2022/01/08 00:50:56;;;;;;;9.73;8.82;;;4.90;99.90;;;;;;4955881;28;20262;-70
2022/01/08 00:53:25;;;;;;;10.13;7.93;;;5.00;99.90;;;;;;4955449;28;20242;-69
2022/01/08 00:55:53;;;;;;;7.97;7.38;;;5.10;99.90;;;;;;4955850;28;20306;-70
2022/01/08 00:58:21;;;;;;;8.50;7.60;;;5.20;99.90;;;;;;4955555;28;20295;-71
2022/01/08 01:00:49;;;;;;;7.50;6.90;;;5.10;99.90;;;;;;4956452;28;20250;-70
2022/01/08 01:03:16;;;;;;;8.48;7.78;;;5.10;99.90;;;;;;4955442;28;20301;-72
2022/01/08 01:05:46;;;;;;;8.40;7.75;;;5.10;99.90;;;;;;4949261;28;20568;-71
2022/01/08 01:08:14;;;;;;;8.20;7.55;;;5.00;99.90;;;;;;4955510;28;20266;-71
2022/01/08 01:10:42;;;;;;;9.10;8.30;;;4.90;99.90;;;;;;4954973;28;20277;-72
2022/01/08 01:13:10;;;;;;;9.45;8.63;;;4.90;99.90;;;;;;4955313;29;20282;-70
2022/01/08 01:15:37;;;;;;;9.60;8.80;;;4.90;99.90;;;;;;4959810;28;20306;-71
2022/01/08 01:18:06;;;;;;;9.63;8.57;;;4.80;99.90;;;;;;4958446;28;20338;-71
2022/01/08 01:20:34;;;;;;;8.80;7.90;;;4.70;99.90;;;;;;4955455;28;20219;-71
2022/01/08 01:23:09;;;;;;;7.55;6.85;;;4.60;99.90;;;;;;4955372;28;20285;-71
2022/01/08 01:25:40;;;;;;;8.07;7.38;;;4.30;99.90;;;;;;4955404;28;20203;-71
2022/01/08 01:28:24;;;;;;;10.20;7.97;;;3.80;99.90;;;;;;4955433;28;20257;-70
2022/01/08 01:41:08;;;;;;;8.80;8.00;;;3.60;99.90;;;;;;4955584;28;20258;-70
2022/01/08 01:42:38;;;;;;;10.45;9.50;;;3.50;99.90;;;;;;4948838;28;20333;-70
2022/01/08 01:47:55;;;;;;;9.82;8.98;;;3.70;99.90;;;;;;4956032;28;20238;-71
2022/01/08 01:50:23;;;;;;;10.05;9.35;;;3.90;99.90;;;;;;4955879;28;20235;-71
2022/01/08 01:52:51;;;;;;;10.48;9.68;;;3.90;99.90;;;;;;4954540;29;20332;-71
2022/01/08 01:55:20;;;;;;;9.20;8.50;;;3.80;99.90;;;;;;4955136;28;20246;-72
2022/01/08 01:57:48;;;;;;;8.93;8.32;;;3.80;99.90;;;;;;4955743;28;20204;-71
2022/01/08 02:00:17;;;;;;;9.85;9.15;;;3.70;99.90;;;;;;4956221;28;20666;-70
2022/01/08 02:02:45;;;;;;;8.98;8.38;;;3.60;99.90;;;;;;4956387;28;20204;-70
2022/01/08 02:05:13;;;;;;;10.80;9.90;;;3.70;99.90;;;;;;4956813;28;20258;-70
2022/01/08 02:07:41;;;;;;;9.27;8.57;;;3.90;99.90;;;;;;4954636;28;20242;-70
2022/01/08 02:10:09;;;;;;;7.93;7.30;;;4.00;99.90;;;;;;4957018;28;20253;-70
2022/01/08 02:12:39;;;;;;;8.23;7.68;;;4.20;99.90;;;;;;4954165;28;20302;-70
2022/01/08 02:15:07;;;;;;;7.93;7.30;;;4.20;99.90;;;;;;4954423;28;20238;-70
2022/01/08 02:17:35;;;;;;;6.90;6.40;;;4.30;99.90;;;;;;4954374;28;20652;-70
2022/01/08 02:20:06;;;;;;;6.60;6.10;;;4.30;99.90;;;;;;4954088;28;20263;-70
2022/01/08 02:22:33;;;;;;;6.57;6.18;;;4.40;99.90;;;;;;4958084;28;20208;-69
2022/01/08 02:25:02;;;;;;;6.60;6.15;;;4.50;99.90;;;;;;4958434;28;20231;-69
2022/01/08 02:27:29;;;;;;;7.32;6.82;;;4.50;99.90;;;;;;4952683;29;20203;-69
2022/01/08 02:29:57;;;;;;;5.53;5.15;;;4.60;99.90;;;;;;4953766;28;20242;-70
2022/01/08 02:32:28;;;;;;;6.07;5.68;;;4.10;99.90;;;;;;4953771;28;20684;-69
2022/01/08 02:34:56;;;;;;;5.63;5.32;;;4.00;99.90;;;;;;4953981;28;20239;-70
2022/01/08 02:37:30;;;;;;;4.97;4.68;;;3.70;99.90;;;;;;4953791;29;20666;-69
2022/01/08 02:40:00;;;;;;;4.95;4.65;;;3.50;99.90;;;;;;4954180;28;20243;-71
2022/01/08 02:42:36;;;;;;;4.60;4.38;;;3.10;99.90;;;;;;4953291;28;20227;-69
2022/01/08 02:45:06;;;;;;;4.30;4.10;;;2.60;99.90;;;;;;4953867;29;20285;-69
2022/01/08 02:47:34;;;;;;;3.85;3.65;;;2.20;99.90;;;;;;4953838;28;20302;-69
2022/01/08 02:50:02;;;;;;;3.85;3.65;;;1.90;99.90;;;;;;4953600;28;20227;-69
2022/01/08 02:52:31;;;;;;;4.80;4.60;;;1.70;99.90;;;;;;4953788;28;20195;-69
2022/01/08 02:54:59;;;;;;;5.00;4.70;;;1.60;99.90;;;;;;4953402;28;20238;-70
2022/01/08 02:57:27;;;;;;;4.60;4.40;;;1.60;99.90;;;;;;4953551;28;20614;-68
2022/01/08 02:59:54;;;;;;;5.15;4.85;;;1.80;99.90;;;;;;4953524;28;20283;-68
2022/01/08 03:02:22;;;;;;;5.05;4.85;;;2.10;99.90;;;;;;4953300;28;20634;-68
2022/01/08 03:04:52;;;;;;;3.47;3.28;;;2.40;99.90;;;;;;4953411;28;20264;-68
2022/01/08 03:07:20;;;;;;;3.03;2.92;;;2.60;99.90;;;;;;4953164;28;20285;-69
2022/01/08 03:09:56;;;;;;;2.80;2.70;;;2.90;99.90;;;;;;4953046;28;20251;-70
2022/01/08 03:12:26;;;;;;;2.90;2.70;;;3.00;99.90;;;;;;4947951;29;20261;-69
2022/01/08 03:14:55;;;;;;;1.80;1.70;;;3.10;99.90;;;;;;4953328;28;20258;-70
2022/01/08 03:17:23;;;;;;;1.55;1.45;;;3.10;99.90;;;;;;4953412;28;20290;-69
2022/01/08 03:19:52;;;;;;;1.73;1.63;;;3.20;99.90;;;;;;4953337;28;20306;-68
2022/01/08 03:22:20;;;;;;;1.60;1.50;;;3.20;99.90;;;;;;4953084;28;20231;-69
2022/01/08 03:24:49;;;;;;;1.17;1.17;;;3.40;99.90;;;;;;4953209;28;20676;-69
2022/01/08 03:27:17;;;;;;;1.30;1.20;;;3.60;99.90;;;;;;4955035;28;20379;-71
2022/01/08 03:29:45;;;;;;;1.10;1.10;;;3.60;99.90;;;;;;4959068;28;20258;-69
2022/01/08 03:32:13;;;;;;;1.55;1.45;;;3.80;99.90;;;;;;4953034;28;20229;-68
2022/01/08 03:34:41;;;;;;;1.10;1.00;;;3.80;99.90;;;;;;4953069;28;20203;-68
2022/01/08 03:37:10;;;;;;;0.77;0.77;;;3.80;99.90;;;;;;4953133;28;20206;-68
2022/01/08 03:39:38;;;;;;;1.00;1.00;;;4.00;99.90;;;;;;4953171;28;20615;-68
2022/01/08 03:42:07;;;;;;;0.80;0.80;;;4.10;99.90;;;;;;4952717;28;20250;-68
2022/01/08 03:44:35;;;;;;;0.90;0.90;;;4.20;99.90;;;;;;4952980;28;20241;-68
2022/01/08 03:47:23;;;;;;;0.90;0.90;;;4.20;99.90;;;;;;4952919;28;20230;-69
2022/01/08 03:49:51;;;;;;;0.80;0.80;;;4.20;99.90;;;;;;4952988;29;20277;-68
2022/01/08 03:52:19;;;;;;;0.80;0.80;;;4.00;99.90;;;;;;4952922;28;20230;-68
2022/01/08 03:54:47;;;;;;;0.80;0.80;;;4.00;99.90;;;;;;4952906;28;20715;-69
2022/01/08 03:57:16;;;;;;;1.40;0.93;;;3.80;99.90;;;;;;4953014;28;20215;-68
2022/01/08 03:59:44;;;;;;;1.10;1.10;;;3.70;99.90;;;;;;4952970;28;20242;-68
2022/01/08 04:02:12;;;;;;;1.40;1.30;;;3.70;99.90;;;;;;4953066;28;20707;-68
2022/01/08 04:04:40;;;;;;;1.10;1.10;;;3.60;99.90;;;;;;4953016;28;20211;-69
2022/01/08 04:07:09;;;;;;;1.05;1.05;;;3.70;99.90;;;;;;4952970;28;20208;-68
2022/01/08 04:09:37;;;;;;;1.85;1.75;;;3.60;99.90;;;;;;4952689;28;20254;-69
2022/01/08 04:12:07;;;;;;;1.40;1.30;;;3.60;99.90;;;;;;4952133;29;20275;-68
2022/01/08 04:14:50;;;;;;;1.38;1.27;;;3.80;99.90;;;;;;4952689;28;20223;-70
2022/01/08 04:17:17;;;;;;;1.20;1.10;;;3.80;99.90;;;;;;4948344;28;20295;-69
2022/01/08 04:19:45;;;;;;;1.02;1.02;;;4.00;99.90;;;;;;4955679;28;20640;-68
2022/01/08 04:22:14;;;;;;;0.73;0.73;;;4.00;99.90;;;;;;4956152;28;20259;-69
2022/01/08 04:24:42;;;;;;;0.75;0.73;;;4.10;99.90;;;;;;4956068;28;20195;-69
2022/01/08 04:27:11;;;;;;;0.80;0.80;;;4.20;99.90;;;;;;4956294;28;20293;-69
2022/01/08 04:29:40;;;;;;;0.70;0.60;;;4.10;99.90;;;;;;4956161;28;20227;-68
2022/01/08 04:32:09;;;;;;;0.60;0.50;;;4.00;99.90;;;;;;4955791;28;20656;-69
2022/01/08 04:34:36;;;;;;;0.60;0.47;;;4.10;99.90;;;;;;4960396;28;20230;-68
2022/01/08 04:37:05;;;;;;;0.80;0.70;;;4.20;99.90;;;;;;4959693;28;20203;-68
2022/01/08 04:39:33;;;;;;;0.70;0.60;;;4.20;99.90;;;;;;4956065;28;20293;-68
2022/01/08 04:42:01;;;;;;;0.75;0.60;;;4.30;99.90;;;;;;4955537;28;20715;-69
2022/01/08 04:44:29;;;;;;;0.50;0.40;;;4.50;99.90;;;;;;4955871;28;20203;-68
2022/01/08 04:46:58;;;;;;;0.60;0.40;;;4.60;99.90;;;;;;4955932;28;20298;-70
2022/01/08 04:49:26;;;;;;;0.60;0.43;;;4.70;99.90;;;;;;4955934;28;20241;-68
2022/01/08 04:51:54;;;;;;;1.15;0.50;;;4.90;99.90;;;;;;4955595;28;20259;-69
2022/01/08 04:54:22;;;;;;;0.60;0.50;;;5.00;99.90;;;;;;4955678;28;20641;-68
2022/01/08 04:56:50;;;;;;;0.60;0.50;;;4.90;99.90;;;;;;4955722;28;20302;-68
2022/01/08 04:59:18;;;;;;;0.80;0.50;;;4.90;99.90;;;;;;4955685;28;20230;-69
2022/01/08 05:01:46;;;;;;;0.52;0.40;;;5.00;99.90;;;;;;4955633;28;20261;-69
2022/01/08 05:04:16;;;;;;;0.60;0.40;;;5.00;99.90;;;;;;4955369;28;20676;-69
2022/01/08 05:06:44;;;;;;;0.60;0.50;;;5.00;99.90;;;;;;4955345;28;20208;-68
2022/01/08 05:09:12;;;;;;;0.77;0.50;;;5.00;99.90;;;;;;4956320;28;20676;-68
2022/01/08 05:11:40;;;;;;;0.50;0.40;;;5.00;99.90;;;;;;4955946;28;20330;-68
2022/01/08 05:14:09;;;;;;;0.50;0.40;;;5.10;99.90;;;;;;4951891;28;20311;-68
2022/01/08 05:16:37;;;;;;;0.60;0.50;;;5.20;99.90;;;;;;4954618;29;20222;-70
2022/01/08 05:19:05;;;;;;;0.50;0.40;;;5.20;99.90;;;;;;4954937;28;20282;-68
2022/01/08 05:21:37;;;;;;;0.50;0.40;;;5.10;99.90;;;;;;4955088;28;20265;-68
2022/01/08 05:24:05;;;;;;;0.60;0.40;;;5.10;99.90;;;;;;4955037;28;20286;-68
2022/01/08 05:26:33;;;;;;;0.50;0.40;;;5.00;99.90;;;;;;4955069;28;20211;-68
2022/01/08 05:29:01;;;;;;;0.60;0.40;;;4.80;99.90;;;;;;4955091;28;20639;-68
2022/01/08 05:31:29;;;;;;;0.60;0.40;;;4.60;99.90;;;;;;4955117;28;20322;-68
2022/01/08 05:33:57;;;;;;;0.65;0.50;;;4.60;99.90;;;;;;4954713;28;20282;-68
2022/01/08 05:36:25;;;;;;;0.70;0.40;;;4.50;99.90;;;;;;4954666;28;20230;-69
2022/01/08 05:38:54;;;;;;;0.50;0.40;;;4.50;99.90;;;;;;4956119;28;20231;-69
2022/01/08 05:41:22;;;;;;;1.30;0.77;;;4.50;99.90;;;;;;4960786;28;20733;-69
2022/01/08 05:43:49;;;;;;;1.50;0.50;;;4.50;99.90;;;;;;4954647;28;20207;-69
2022/01/08 05:46:17;;;;;;;0.60;0.50;;;4.60;99.90;;;;;;4954380;28;20238;-69
2022/01/08 05:48:45;;;;;;;1.23;0.60;;;4.70;99.90;;;;;;4954767;28;20265;-69
2022/01/08 05:51:13;;;;;;;1.05;0.70;;;4.70;99.90;;;;;;4954447;28;20244;-70
2022/01/08 05:53:41;;;;;;;0.93;0.80;;;4.60;99.90;;;;;;4948223;28;20848;-69
2022/01/08 05:56:10;;;;;;;0.90;0.73;;;4.20;99.90;;;;;;4945450;28;20239;-69
2022/01/08 05:58:38;;;;;;;1.30;1.20;;;4.30;99.90;;;;;;4951182;29;20783;-69
2022/01/08 06:01:06;;;;;;;2.30;2.20;;;4.30;99.90;;;;;;4954503;28;20322;-68
2022/01/08 06:03:34;;;;;;;2.30;2.10;;;4.10;99.90;;;;;;4953877;28;20227;-68
2022/01/08 06:06:02;;;;;;;5.50;3.53;;;4.00;99.90;;;;;;4954179;29;20246;-70
2022/01/08 06:08:30;;;;;;;3.15;2.95;;;3.80;99.90;;;;;;4954395;28;20231;-68
2022/01/08 06:10:58;;;;;;;4.15;3.72;;;3.70;99.90;;;;;;4953730;28;20235;-69
2022/01/08 06:13:27;;;;;;;4.25;3.92;;;3.70;99.90;;;;;;4954186;28;20246;-68
2022/01/08 06:15:55;;;;;;;4.28;3.88;;;3.70;99.90;;;;;;4946721;28;20227;-69
2022/01/08 06:18:23;;;;;;;5.10;4.60;;;3.90;99.90;;;;;;4954199;28;20230;-70
2022/01/08 06:20:51;;;;;;;4.20;4.00;;;4.10;99.90;;;;;;4954201;28;20714;-68
2022/01/08 06:23:19;;;;;;;4.90;4.50;;;4.10;99.90;;;;;;4953931;28;20199;-69
2022/01/08 06:25:47;;;;;;;4.63;4.32;;;4.20;99.90;;;;;;4954048;28;20246;-68
2022/01/08 06:28:15;;;;;;;6.22;4.88;;;4.20;99.90;;;;;;4936651;29;20326;-68
2022/01/08 06:30:44;;;;;;;5.88;5.28;;;4.30;99.90;;;;;;4951135;29;20711;-68
2022/01/08 06:33:12;;;;;;;5.30;4.80;;;4.40;99.90;;;;;;4953782;28;20611;-69
2022/01/08 06:35:40;;;;;;;5.95;5.32;;;4.20;99.90;;;;;;4953839;28;20231;-68
2022/01/08 06:38:08;;;;;;;5.30;4.90;;;4.30;99.90;;;;;;4953760;28;20727;-67
2022/01/08 06:40:36;;;;;;;5.95;5.28;;;4.30;99.90;;;;;;4953287;28;20251;-68
2022/01/08 06:43:04;;;;;;;5.95;5.40;;;4.40;99.90;;;;;;4953397;28;20290;-68
2022/01/08 06:45:32;;;;;;;5.40;4.90;;;4.50;99.90;;;;;;4956319;28;20203;-68
2022/01/08 06:48:01;;;;;;;6.07;5.30;;;4.60;99.90;;;;;;4954831;28;20619;-68
2022/01/08 06:50:29;;;;;;;6.55;6.05;;;4.60;99.90;;;;;;4953842;28;20223;-69
2022/01/08 06:52:57;;;;;;;6.35;5.85;;;4.60;99.90;;;;;;4953495;28;20326;-69
2022/01/08 06:55:26;;;;;;;8.18;7.38;;;4.60;99.90;;;;;;4953498;28;20234;-68
2022/01/08 06:57:55;;;;;;;6.95;6.28;;;4.60;99.90;;;;;;4953609;28;20218;-68
2022/01/08 07:00:23;;;;;;;6.50;6.00;;;4.50;99.90;;;;;;4953605;28;20704;-68
2022/01/08 07:02:51;;;;;;;7.70;6.88;;;4.50;99.90;;;;;;4951112;28;20230;-68
2022/01/08 07:05:20;;;;;;;6.97;6.22;;;4.40;99.90;;;;;;4953333;28;20290;-69
2022/01/08 07:07:48;;;;;;;7.10;6.40;;;4.10;99.90;;;;;;4949921;28;20279;-69
2022/01/08 07:10:16;;;;;;;7.95;6.55;;;4.20;99.90;;;;;;4947908;28;20281;-69
2022/01/08 07:12:44;;;;;;;9.57;6.88;;;4.00;99.90;;;;;;4951138;28;20313;-69
2022/01/08 07:15:12;;;;;;;8.27;7.45;;;3.80;99.90;;;;;;4948029;28;20591;-69
2022/01/08 07:17:41;;;;;;;9.27;8.43;;;3.60;99.90;;;;;;4953216;29;20204;-69
2022/01/08 07:20:10;;;;;;;10.00;9.10;;;3.40;99.90;;;;;;4952818;28;20210;-70
2022/01/08 07:22:39;;;;;;;9.93;8.90;;;3.30;99.90;;;;;;4952885;28;20246;-69
2022/01/08 07:25:09;;;;;;;9.55;8.75;;;3.10;99.90;;;;;;4953226;28;20294;-67
2022/01/08 07:27:37;;;;;;;16.17;8.88;;;3.00;99.90;;;;;;4947922;28;20242;-70
2022/01/08 07:30:07;;;;;;;29.58;15.30;;;5.60;99.90;;;;;;4953300;28;20629;-70
2022/01/08 07:32:40;;;;;;;18.55;13.00;;;7.80;99.90;;;;;;4946879;29;20593;-71
2022/01/08 07:35:09;;;;;;;21.08;12.30;;;8.40;99.90;;;;;;4953111;28;20219;-71
2022/01/08 07:37:39;;;;;;;8.80;7.95;;;9.00;99.90;;;;;;4948291;29;20267;-70
2022/01/08 07:40:08;;;;;;;7.90;6.20;;;8.70;99.90;;;;;;4951064;28;20205;-72
2022/01/08 07:42:36;;;;;;;6.18;5.68;;;8.00;99.90;;;;;;4952726;28;20209;-70
2022/01/08 07:45:06;;;;;;;9.88;6.60;;;7.20;99.90;;;;;;4951496;28;20199;-70
2022/01/08 07:47:34;;;;;;;8.43;6.55;;;6.40;99.90;;;;;;4952669;29;20203;-70
2022/01/08 07:50:03;;;;;;;7.55;6.85;;;5.60;99.90;;;;;;4952634;28;20210;-70
2022/01/08 07:52:32;;;;;;;8.65;7.30;;;5.10;99.90;;;;;;4953847;28;20708;-70
2022/01/08 07:55:01;;;;;;;8.63;7.15;;;4.70;99.90;;;;;;4956758;28;20232;-71
2022/01/08 07:57:29;;;;;;;10.80;8.43;;;4.30;99.90;;;;;;4956588;28;20664;-69
2022/01/08 07:59:57;;;;;;;9.73;8.55;;;4.00;99.90;;;;;;4957042;28;20215;-70
2022/01/08 08:02:25;;;;;;;9.25;8.35;;;3.50;99.90;;;;;;4956509;28;20207;-70
2022/01/08 08:04:54;;;;;;;10.75;9.48;;;3.60;99.90;;;;;;4956602;28;20219;-69
2022/01/08 08:07:31;;;;;;;8.80;7.90;;;3.60;99.90;;;;;;4956579;28;20211;-70
2022/01/08 08:10:00;;;;;;;11.52;10.32;;;3.40;99.90;;;;;;4954923;29;20241;-70
2022/01/08 08:12:28;;;;;;;11.73;10.55;;;3.30;99.90;;;;;;4956682;28;20286;-69
2022/01/08 08:14:56;;;;;;;11.48;10.07;;;3.30;99.90;;;;;;4956127;28;20203;-70
2022/01/08 08:17:24;;;;;;;13.02;10.95;;;3.30;99.90;;;;;;4956042;29;20222;-69
2022/01/08 08:19:52;;;;;;;14.05;12.10;;;3.10;99.90;;;;;;4956243;28;20214;-70
2022/01/08 08:22:20;;;;;;;12.68;11.48;;;3.00;99.90;;;;;;4954647;29;20240;-70
2022/01/08 08:24:48;;;;;;;14.38;12.23;;;3.00;99.90;;;;;;4954732;29;20218;-70
2022/01/08 08:27:18;;;;;;;14.40;13.00;;;3.00;99.90;;;;;;4953546;29;20211;-70
2022/01/08 08:29:46;;;;;;;15.55;12.48;;;3.00;99.90;;;;;;4955956;29;20199;-70
2022/01/08 08:32:14;;;;;;;16.17;14.60;;;3.10;99.90;;;;;;4954104;28;20265;-70
2022/01/08 08:34:42;;;;;;;16.58;15.18;;;3.10;99.90;;;;;;4947673;28;20666;-71
2022/01/08 08:37:10;;;;;;;15.05;13.05;;;3.00;99.90;;;;;;4950821;29;20715;-70
2022/01/08 08:39:38;;;;;;;17.23;13.32;;;2.80;99.90;;;;;;4949596;29;20783;-70
2022/01/08 08:42:06;;;;;;;18.58;14.80;;;2.60;99.90;;;;;;4950385;28;20313;-70
2022/01/08 08:44:35;;;;;;;17.45;15.75;;;2.50;99.90;;;;;;4950700;28;20235;-69
2022/01/08 08:47:04;;;;;;;18.45;15.15;;;2.40;99.90;;;;;;4949365;29;20208;-71
2022/01/08 08:49:33;;;;;;;18.60;16.77;;;2.30;99.90;;;;;;4950145;29;20691;-70
2022/01/08 08:52:01;;;;;;;17.00;15.35;;;2.30;99.90;;;;;;4950311;28;20334;-71
2022/01/08 08:54:29;;;;;;;16.42;14.70;;;2.30;99.90;;;;;;4950669;28;20290;-70
2022/01/08 08:56:57;;;;;;;18.40;14.38;;;2.20;99.90;;;;;;4950288;28;20212;-71
2022/01/08 08:59:25;;;;;;;17.17;14.02;;;2.20;99.90;;;;;;4950562;28;20235;-71
2022/01/08 09:01:56;;;;;;;13.48;11.80;;;2.10;99.90;;;;;;4950956;28;20318;-69
2022/01/08 09:04:24;;;;;;;14.15;12.07;;;2.10;99.90;;;;;;4952469;28;20198;-69
2022/01/08 09:06:52;;;;;;;13.38;11.68;;;2.10;99.90;;;;;;4948905;29;20695;-69
2022/01/08 09:09:20;;;;;;;13.88;12.68;;;2.10;99.90;;;;;;4944369;29;20266;-69
2022/01/08 09:11:48;;;;;;;15.85;14.35;;;2.20;99.90;;;;;;4944424;29;20293;-69
2022/01/08 09:14:16;;;;;;;16.60;14.95;;;2.30;99.90;;;;;;4944000;28;20321;-69
2022/01/08 09:16:48;;;;;;;16.40;14.80;;;2.40;99.90;;;;;;4947295;29;20298;-69
2022/01/08 09:19:18;;;;;;;15.40;13.73;;;2.40;99.90;;;;;;4949128;29;20298;-69
2022/01/08 09:21:46;;;;;;;13.73;12.48;;;2.40;99.90;;;;;;4950063;28;20353;-71
2022/01/08 09:24:18;;;;;;;18.90;12.55;;;2.30;99.90;;;;;;4935827;29;20216;-69
2022/01/08 09:26:46;;;;;;;13.05;11.65;;;2.30;99.90;;;;;;4950249;28;20295;-70
2022/01/08 09:29:15;;;;;;;13.80;10.60;;;2.30;99.90;;;;;;4949536;28;20307;-69
2022/01/08 09:31:43;;;;;;;12.38;10.20;;;2.40;99.90;;;;;;4946937;28;20250;-69
2022/01/08 09:34:11;;;;;;;13.85;8.70;;;2.60;99.90;;;;;;4949357;29;20768;-70
2022/01/08 09:36:41;;;;;;;10.95;9.45;;;3.20;99.90;;;;;;4949610;28;20207;-68
2022/01/08 09:39:09;;;;;;;10.38;9.18;;;3.70;99.90;;;;;;4948226;29;20661;-69
2022/01/08 09:41:37;;;;;;;11.98;7.63;;;4.20;99.90;;;;;;4949954;28;20251;-69
2022/01/08 09:44:06;;;;;;;9.18;7.40;;;4.50;99.90;;;;;;4949397;28;20621;-69
2022/01/08 09:46:34;;;;;;;6.70;6.00;;;4.80;99.90;;;;;;4949142;28;20330;-70
2022/01/08 09:49:02;;;;;;;8.82;5.95;;;4.80;99.90;;;;;;4949443;28;20211;-69
2022/01/08 09:51:31;;;;;;;11.48;5.85;;;4.90;99.90;;;;;;4951267;29;20235;-69
2022/01/08 09:54:00;;;;;;;7.20;5.13;;;5.00;99.90;;;;;;4946719;28;20233;-69
2022/01/08 09:56:31;;;;;;;20.58;6.63;;;5.20;99.90;;;;;;4942423;29;20331;-69
2022/01/08 09:58:59;;;;;;;10.73;5.35;;;5.50;99.90;;;;;;4948876;29;20187;-70
2022/01/08 10:01:29;;;;;;;8.10;5.45;;;6.00;99.90;;;;;;4944518;29;20215;-70
2022/01/08 10:04:24;;;;;;;7.38;5.03;;;5.80;99.90;;;;;;4940805;28;20214;-69
2022/01/08 10:06:52;;;;;;;11.73;5.20;;;5.10;99.90;;;;;;4943146;29;20279;-70
2022/01/08 10:09:21;;;;;;;8.98;5.30;;;4.60;99.90;;;;;;4948923;28;20242;-70
2022/01/08 10:11:50;;;;;;;13.77;6.90;;;4.20;99.90;;;;;;4949291;28;20234;-71
2022/01/08 10:14:29;;;;;;;8.25;6.13;;;3.70;99.90;;;;;;4947616;28;20625;-71
2022/01/08 10:17:14;;;;;;;14.93;6.82;;;3.50;99.90;;;;;;4952987;28;20302;-69
2022/01/08 10:19:42;;;;;;;8.43;6.55;;;3.40;99.90;;;;;;4954319;29;20282;-71
2022/01/08 10:22:19;;;;;;;13.80;7.20;;;3.30;99.90;;;;;;4953805;28;20661;-70
2022/01/08 10:25:08;;;;;;;8.75;6.95;;;3.20;99.90;;;;;;4947999;29;20233;-70
2022/01/08 10:27:36;;;;;;;12.40;8.15;;;3.30;99.90;;;;;;4951224;28;20227;-71
2022/01/08 10:30:05;;;;;;;7.90;6.80;;;3.50;99.90;;;;;;4953900;28;20204;-70
2022/01/08 10:32:33;;;;;;;6.82;5.38;;;3.60;99.90;;;;;;4953439;28;20195;-71
2022/01/08 10:35:01;;;;;;;9.18;7.60;;;3.70;99.90;;;;;;4953720;28;20219;-70
2022/01/08 10:37:52;;;;;;;12.85;7.15;;;3.80;99.90;;;;;;4954027;28;20203;-68
2022/01/08 10:40:35;;;;;;;10.35;7.05;;;3.90;99.90;;;;;;4947707;29;20301;-69
2022/01/08 10:43:03;;;;;;;9.52;7.65;;;4.40;99.90;;;;;;4953339;28;20279;-70
2022/01/08 10:45:34;;;;;;;10.13;5.85;;;4.50;99.90;;;;;;4953528;28;20720;-70
2022/01/08 10:48:07;;;;;;;7.72;5.88;;;4.60;99.90;;;;;;4953469;28;20203;-70
2022/01/08 10:50:34;;;;;;;8.05;5.00;;;4.80;99.90;;;;;;4953568;28;20792;-70
2022/01/08 10:53:03;;;;;;;13.18;5.10;;;5.00;99.90;;;;;;4953366;29;20231;-71
2022/01/08 10:55:32;;;;;;;8.30;4.30;;;5.40;99.90;;;;;;4953469;28;20687;-70
2022/01/08 10:58:01;;;;;;;7.20;3.90;;;5.70;99.90;;;;;;4953457;28;20852;-70
2022/01/08 11:00:31;;;;;;;6.13;4.10;;;6.00;99.90;;;;;;4953466;28;20226;-70
2022/01/08 11:02:59;;;;;;;6.82;3.92;;;6.40;99.90;;;;;;4952985;28;20203;-71
2022/01/08 11:05:28;;;;;;;5.18;4.00;;;6.20;99.90;;;;;;4953438;28;20644;-71
2022/01/08 11:08:13;;;;;;;5.55;4.28;;;6.00;99.90;;;;;;4953224;28;20252;-68
2022/01/08 11:11:03;;;;;;;11.10;6.43;;;5.80;99.90;;;;;;4947677;29;20781;-67
2022/01/08 11:13:32;;;;;;;7.72;5.57;;;5.80;99.90;;;;;;4940818;29;20236;-60
2022/01/08 11:16:00;;;;;;;10.57;6.85;;;5.60;99.90;;;;;;4929826;29;20554;-59
2022/01/08 11:18:28;;;;;;;6.95;4.85;;;5.50;99.90;;;;;;4933788;29;20227;-60
2022/01/08 11:20:57;;;;;;;5.07;4.57;;;5.10;99.90;;;;;;4933833;29;20673;-59
2022/01/08 11:23:28;;;;;;;7.40;5.00;;;4.80;99.90;;;;;;4933767;29;20227;-60
2022/01/08 11:25:58;;;;;;;11.10;5.00;;;4.60;99.90;;;;;;4934204;29;20223;-60
2022/01/08 11:28:34;;;;;;;10.02;5.90;;;4.40;99.90;;;;;;4938629;29;20238;-59
2022/01/08 11:31:03;;;;;;;11.43;5.25;;;4.30;99.90;;;;;;4939650;29;20214;-60
2022/01/08 11:33:36;;;;;;;7.40;5.03;;;4.40;99.90;;;;;;4938743;29;20227;-60
2022/01/08 11:36:04;;;;;;;9.07;5.43;;;4.40;99.90;;;;;;4934057;29;20198;-61
2022/01/08 11:38:32;;;;;;;7.03;4.45;;;4.60;99.90;;;;;;4940201;29;20219;-61
2022/01/08 11:41:00;;;;;;;7.35;4.50;;;4.60;99.90;;;;;;4940532;29;20224;-62
2022/01/08 11:43:30;;;;;;;6.97;4.40;;;4.70;99.90;;;;;;4939842;29;20200;-63
2022/01/08 11:46:02;;;;;;;7.55;5.03;;;4.70;99.90;;;;;;4939749;29;20207;-62
2022/01/08 11:48:32;;;;;;;6.47;5.03;;;4.80;99.90;;;;;;4938382;29;20310;-62
2022/01/08 11:51:01;;;;;;;10.38;5.80;;;4.70;99.90;;;;;;4939508;29;20231;-60
2022/01/08 11:53:31;;;;;;;6.30;4.43;;;4.90;99.90;;;;;;4939275;29;20208;-62
2022/01/08 11:56:01;;;;;;;9.63;5.45;;;4.90;99.90;;;;;;4928710;29;20202;-62
2022/01/08 11:58:31;;;;;;;7.95;4.53;;;5.10;99.90;;;;;;4931131;29;20227;-61
2022/01/08 12:01:02;;;;;;;7.03;4.55;;;5.20;99.90;;;;;;4934973;29;20668;-61
2022/01/08 12:03:33;;;;;;;10.35;4.72;;;5.30;99.90;;;;;;4934658;29;20296;-62
2022/01/08 12:06:36;;;;;;;8.80;5.10;;;5.20;99.90;;;;;;4934844;29;20306;-61
2022/01/08 12:09:19;;;;;;;17.85;5.65;;;5.10;99.90;;;;;;4935250;29;20242;-61
2022/01/08 12:11:53;;;;;;;12.68;6.07;;;5.10;99.90;;;;;;4934882;29;20247;-61
2022/01/08 12:14:23;;;;;;;11.48;6.35;;;5.30;99.90;;;;;;4930842;29;20306;-61
2022/01/08 12:16:53;;;;;;;9.13;5.05;;;5.10;99.90;;;;;;4936376;29;20203;-61
2022/01/08 12:19:33;;;;;;;6.05;4.93;;;5.10;99.90;;;;;;4935102;29;20302;-61
2022/01/08 12:22:22;;;;;;;5.35;3.67;;;4.90;99.90;;;;;;4926516;29;20584;-61
2022/01/08 12:24:51;;;;;;;11.20;4.40;;;4.70;99.90;;;;;;4929644;29;20482;-61
2022/01/08 12:27:22;;;;;;;7.90;4.78;;;4.70;99.90;;;;;;4930503;29;20200;-61
2022/01/08 12:29:50;;;;;;;7.63;4.50;;;4.80;99.90;;;;;;4934719;29;20295;-61
2022/01/08 12:32:34;;;;;;;7.05;4.75;;;4.60;99.90;;;;;;4934520;29;20874;-61
2022/01/08 12:35:24;;;;;;;8.10;4.65;;;4.60;99.90;;;;;;4934152;29;20283;-61
2022/01/08 12:37:53;;;;;;;7.32;4.35;;;4.30;99.90;;;;;;4929322;29;20807;-61
2022/01/08 12:40:36;;;;;;;8.02;4.80;;;4.40;99.90;;;;;;4925537;29;20291;-62
2022/01/08 12:43:35;;;;;;;7.47;5.32;;;4.30;99.90;;;;;;4931654;29;20228;-61
2022/01/08 12:46:19;;;;;;;5.80;4.80;;;4.30;99.90;;;;;;4926190;29;20196;-61
2022/01/08 12:49:12;;;;;;;7.57;4.30;;;4.10;99.90;;;;;;4931381;29;20240;-60
2022/01/08 12:51:44;;;;;;;8.32;5.53;;;3.80;99.90;;;;;;4933352;29;20224;-60
2022/01/08 12:54:13;;;;;;;10.23;6.65;;;3.70;99.90;;;;;;4925006;29;20282;-61
2022/01/08 12:56:48;;;;;;;6.38;5.25;;;3.60;99.90;;;;;;4928455;29;20204;-61
2022/01/08 12:59:16;;;;;;;8.93;6.13;;;3.50;99.90;;;;;;4914156;29;20242;-61
2022/01/08 13:01:46;;;;;;;8.10;6.22;;;3.40;99.90;;;;;;4931283;29;20298;-61
2022/01/08 13:04:18;;;;;;;8.75;5.93;;;3.30;99.90;;;;;;4930736;29;20224;-61
2022/01/08 13:06:47;;;;;;;7.95;5.43;;;3.20;99.90;;;;;;4931303;29;20208;-61
2022/01/08 13:09:16;;;;;;;6.47;5.78;;;3.20;99.90;;;;;;4931571;29;20676;-61
2022/01/08 13:11:46;;;;;;;6.70;5.60;;;3.20;99.90;;;;;;4931075;29;20319;-61
2022/01/08 13:14:15;;;;;;;7.25;4.93;;;3.10;99.90;;;;;;4930896;29;20721;-61
2022/01/08 13:16:44;;;;;;;5.78;5.25;;;3.10;99.90;;;;;;4928812;29;20204;-61
2022/01/08 13:19:14;;;;;;;5.93;4.32;;;3.10;99.90;;;;;;4928070;29;20290;-61